Time;durP1;ratioP1;P1;durP2;ratioP2;P2;SDS_P1;SDS_P2;PMS_P1;PMS_P2;Temp;Humidity;BMP_temperature;BMP_pressure;BME280_temperature;BME280_humidity;BME280_pressure;Samples;Min_cycle;Max_cycle;Signal;HPM_P1;HPM_P2
2023/11/21 00:00:11;;;;;;;;;;;;;;;6.61;100.00;100731.84;6215210;23;19912;-87
2023/11/21 00:02:38;;;;;;;;;;;;;;;6.55;100.00;100736.03;6216109;23;19991;-87
2023/11/21 00:05:23;;;;;;;;;;;;;;;6.58;100.00;100742.88;6215421;23;19990;-87
2023/11/21 00:07:57;;;;;;;;;;;;;;;6.45;100.00;100746.09;6216630;23;19916;-87
2023/11/21 00:10:34;;;;;;;;;;;;;;;6.46;100.00;100743.25;6217131;23;19911;-86
2023/11/21 00:13:02;;;;;;;;;;;;;;;6.35;100.00;100747.13;6215548;23;19916;-87
2023/11/21 00:15:42;;;;;;;;;;;;;;;6.21;100.00;100748.66;6198929;23;19954;-86
2023/11/21 00:18:37;;;;;;;;;;;;;;;6.09;100.00;100743.88;6216788;23;19939;-88
2023/11/21 00:21:02;;;;;;;;;;;;;;;6.00;100.00;100751.06;6214487;23;19923;-87
2023/11/21 00:23:28;;;;;;;;;;;;;;;5.94;100.00;100757.06;6215133;23;20331;-87
2023/11/21 00:26:08;;;;;;;;;;;;;;;5.97;100.00;100754.88;6211015;23;19928;-86
2023/11/21 00:28:36;;;;;;;;;;;;;;;6.06;100.00;100745.88;6215725;23;19912;-86
2023/11/21 00:31:35;;;;;;;;;;;;;;;6.16;100.00;100752.88;6216578;23;20339;-86
2023/11/21 00:34:11;;;;;;;;;;;;;;;6.18;100.00;100745.50;6187509;23;19912;-86
2023/11/21 00:36:36;;;;;;;;;;;;;;;6.20;100.00;100751.53;6215417;23;20368;-86
2023/11/21 00:39:06;;;;;;;;;;;;;;;6.15;100.00;100754.72;6215501;23;19912;-86
2023/11/21 00:41:36;;;;;;;;;;;;;;;6.12;100.00;100755.06;6214858;23;20312;-86
2023/11/21 00:44:11;;;;;;;;;;;;;;;6.09;100.00;100744.69;6215170;23;19919;-86
2023/11/21 00:46:36;;;;;;;;;;;;;;;6.20;100.00;100752.34;6211746;23;19926;-86
2023/11/21 00:49:16;;;;;;;;;;;;;;;6.28;100.00;100754.16;6214514;23;19932;-86
2023/11/21 00:51:41;;;;;;;;;;;;;;;6.30;100.00;100751.34;6215907;23;19912;-86
2023/11/21 00:54:23;;;;;;;;;;;;;;;6.30;100.00;100746.00;6215379;23;20351;-86
2023/11/21 00:56:57;;;;;;;;;;;;;;;6.32;100.00;100758.16;6215142;23;19924;-87
2023/11/21 00:59:25;;;;;;;;;;;;;;;6.26;100.00;100750.84;6218328;23;20387;-87
2023/11/21 01:02:04;;;;;;;;;;;;;;;6.23;100.00;100761.88;6214668;23;20371;-86
2023/11/21 01:04:37;;;;;;;;;;;;;;;6.13;100.00;100764.75;6218070;23;19915;-87
2023/11/21 01:07:05;;;;;;;;;;;;;;;6.05;100.00;100770.09;6216907;23;19908;-86
2023/11/21 01:09:36;;;;;;;;;;;;;;;6.13;100.00;100779.94;6219080;23;19922;-87
2023/11/21 01:14:52;;;;;;;;;;;;;;;6.27;100.00;100786.44;6192804;23;20299;-87
2023/11/21 01:17:27;;;;;;;;;;;;;;;6.17;100.00;100786.59;6215157;23;19920;-87
2023/11/21 01:20:11;;;;;;;;;;;;;;;6.22;100.00;100786.94;6221156;23;19907;-87
2023/11/21 01:22:51;;;;;;;;;;;;;;;6.11;100.00;100790.78;6219901;23;19969;-86
2023/11/21 01:25:32;;;;;;;;;;;;;;;6.04;100.00;100792.47;6219137;23;19961;-86
2023/11/21 01:28:16;;;;;;;;;;;;;;;5.98;100.00;100796.63;6215255;23;20244;-87
2023/11/21 01:30:41;;;;;;;;;;;;;;;6.05;100.00;100804.81;6216411;23;19946;-86
2023/11/21 01:45:41;;;;;;;;;;;;;;;6.09;100.00;100816.84;6184861;23;19928;-86
2023/11/21 01:48:06;;;;;;;;;;;;;;;6.07;100.00;100822.38;6183543;23;19920;-86
2023/11/21 01:50:37;;;;;;;;;;;;;;;6.05;100.00;100815.50;6183566;23;19916;-86
2023/11/21 01:53:18;;;;;;;;;;;;;;;6.03;100.00;100825.53;6193932;23;19920;-87
2023/11/21 01:56:09;;;;;;;;;;;;;;;6.04;100.00;100824.53;6206090;23;19904;-86
2023/11/21 01:58:41;;;;;;;;;;;;;;;6.01;100.00;100822.19;6191166;23;19943;-86
2023/11/21 02:04:39;;;;;;;;;;;;;;;6.06;100.00;100825.19;6201949;23;20394;-86
2023/11/21 02:07:39;;;;;;;;;;;;;;;6.08;100.00;100823.19;6188431;23;19912;-86
2023/11/21 02:10:14;;;;;;;;;;;;;;;6.07;100.00;100821.53;6185782;23;19935;-87
2023/11/21 02:12:40;;;;;;;;;;;;;;;6.17;100.00;100824.03;6184670;23;19912;-86
2023/11/21 02:15:33;;;;;;;;;;;;;;;6.24;100.00;100826.84;6187123;23;20616;-86
2023/11/21 02:17:59;;;;;;;;;;;;;;;6.22;100.00;100822.50;6186031;23;19908;-86
2023/11/21 02:20:38;;;;;;;;;;;;;;;6.18;100.00;100823.84;6186227;23;19912;-86
2023/11/21 02:23:35;;;;;;;;;;;;;;;6.33;100.00;100820.50;6187640;23;19962;-86
2023/11/21 02:26:21;;;;;;;;;;;;;;;6.41;100.00;100823.16;6185439;23;19935;-87
2023/11/21 02:31:46;;;;;;;;;;;;;;;;;;;;;
2023/11/21 02:34:13;;;;;;;;;;;;;;;6.12;100.00;100821.88;6204793;23;19943;-86
2023/11/21 02:36:51;;;;;;;;;;;;;;;6.02;100.00;100824.72;6189671;23;19939;-87
2023/11/21 02:39:18;;;;;;;;;;;;;;;6.01;100.00;100822.19;6211558;23;19920;-86
2023/11/21 02:41:46;;;;;;;;;;;;;;;6.02;100.00;100824.72;6214858;23;19916;-85
2023/11/21 02:44:52;;;;;;;;;;;;;;;6.07;100.00;100824.19;6215264;23;19923;-86
2023/11/21 02:47:17;;;;;;;;;;;;;;;6.13;100.00;100838.72;6184727;23;19915;-86
2023/11/21 02:49:42;;;;;;;;;;;;;;;6.16;100.00;100836.56;6214632;22;19981;-86
2023/11/21 02:52:10;;;;;;;;;;;;;;;6.13;100.00;100836.91;6185141;23;19916;-86
2023/11/21 02:54:36;;;;;;;;;;;;;;;6.06;100.00;100830.53;6183575;23;19995;-85
2023/11/21 02:57:38;;;;;;;;;;;;;;;6.07;100.00;100841.09;6183525;23;19935;-86
2023/11/21 03:00:07;;;;;;;;;;;;;;;5.97;100.00;100840.38;6183448;23;19912;-86
2023/11/21 03:02:39;;;;;;;;;;;;;;;5.89;100.00;100840.38;6183034;23;19920;-85
2023/11/21 03:05:35;;;;;;;;;;;;;;;5.94;100.00;100842.56;6183833;23;20252;-86
2023/11/21 03:08:35;;;;;;;;;;;;;;;5.93;100.00;100844.38;6183642;23;19940;-86
2023/11/21 03:11:33;;;;;;;;;;;;;;;6.05;100.00;100844.91;6183006;23;19923;-86
2023/11/21 03:14:28;;;;;;;;;;;;;;;6.13;100.00;100847.59;6170219;23;19916;-86
2023/11/21 03:17:27;;;;;;;;;;;;;;;6.26;100.00;100857.78;6163618;23;19912;-87
2023/11/21 03:19:52;;;;;;;;;;;;;;;6.32;100.00;100866.97;6184161;23;19947;-86
2023/11/21 03:22:33;;;;;;;;;;;;;;;6.34;100.00;100859.63;6183964;23;19924;-86
2023/11/21 03:27:42;;;;;;;;;;;;;;;6.21;100.00;100871.63;6183138;23;19939;-85
2023/11/21 03:30:16;;;;;;;;;;;;;;;6.19;100.00;100868.28;6183414;23;19912;-85
2023/11/21 03:32:42;;;;;;;;;;;;;;;6.18;100.00;100874.63;6183512;23;19998;-85
2023/11/21 03:35:34;;;;;;;;;;;;;;;6.28;100.00;100870.97;6182188;23;19951;-85
2023/11/21 03:38:00;;;;;;;;;;;;;;;6.33;100.00;100880.16;6182358;23;19931;-85
2023/11/21 03:40:28;;;;;;;;;;;;;;;6.48;100.00;100883.00;6183880;23;20376;-86
2023/11/21 03:42:53;;;;;;;;;;;;;;;6.44;100.00;100881.66;6182633;23;19908;-86
2023/11/21 03:45:19;;;;;;;;;;;;;;;6.41;100.00;100876.63;6184303;23;19920;-85
2023/11/21 03:47:56;;;;;;;;;;;;;;;6.46;100.00;100879.66;6184054;23;19909;-85
2023/11/21 03:50:34;;;;;;;;;;;;;;;6.54;100.00;100876.13;6186049;23;19920;-86
2023/11/21 03:52:59;;;;;;;;;;;;;;;6.61;100.00;100881.63;6187159;23;19916;-86
2023/11/21 03:55:46;;;;;;;;;;;;;;;6.63;100.00;100882.28;6185947;23;19923;-86
2023/11/21 03:58:20;;;;;;;;;;;;;;;6.66;100.00;100879.28;6184632;23;19919;-86
2023/11/21 04:00:47;;;;;;;;;;;;;;;6.68;100.00;100878.09;6185491;23;19958;-86
2023/11/21 04:03:13;;;;;;;;;;;;;;;6.66;100.00;100871.25;6184622;23;20576;-86
2023/11/21 04:05:38;;;;;;;;;;;;;;;6.72;100.00;100873.22;6184744;23;19919;-85
2023/11/21 04:08:10;;;;;;;;;;;;;;;6.72;100.00;100864.38;6184627;23;19912;-86
2023/11/21 04:10:35;;;;;;;;;;;;;;;6.62;100.00;100867.25;6182688;23;20210;-86
2023/11/21 04:13:12;;;;;;;;;;;;;;;6.61;100.00;100881.63;6189069;23;19959;-86
2023/11/21 04:15:37;;;;;;;;;;;;;;;6.59;100.00;100878.28;6185966;23;19919;-86
2023/11/21 04:18:02;;;;;;;;;;;;;;;6.51;100.00;100893.34;6184455;23;19912;-85
2023/11/21 04:20:28;;;;;;;;;;;;;;;6.56;100.00;100890.16;6186484;23;19912;-85
2023/11/21 04:22:53;;;;;;;;;;;;;;;6.63;100.00;100901.84;6189612;23;19919;-86
2023/11/21 04:25:37;;;;;;;;;;;;;;;6.60;100.00;100902.19;6185233;23;20011;-86
2023/11/21 04:28:05;;;;;;;;;;;;;;;6.72;100.00;100905.34;6189877;23;19912;-86
2023/11/21 04:30:39;;;;;;;;;;;;;;;6.76;100.00;100913.88;6186310;23;20059;-86
2023/11/21 04:33:14;;;;;;;;;;;;;;;6.68;100.00;100912.06;6185300;23;19916;-85
2023/11/21 04:35:39;;;;;;;;;;;;;;;6.65;100.00;100917.72;6186636;23;19912;-86
2023/11/21 04:38:04;;;;;;;;;;;;;;;6.62;100.00;100916.22;6185112;23;19920;-85
2023/11/21 04:40:41;;;;;;;;;;;;;;;6.63;100.00;100919.75;6186874;23;20047;-86
2023/11/21 04:43:18;;;;;;;;;;;;;;;6.66;100.00;100917.56;6185687;23;19908;-86
2023/11/21 04:45:43;;;;;;;;;;;;;;;6.66;100.00;100928.25;6186212;23;19995;-86
2023/11/21 04:48:09;;;;;;;;;;;;;;;6.68;100.00;100930.78;6187015;23;19908;-86
2023/11/21 04:50:34;;;;;;;;;;;;;;;6.73;100.00;100931.09;6187705;23;20261;-86
2023/11/21 04:53:14;;;;;;;;;;;;;;;6.75;100.00;100938.97;6188888;23;20341;-83
2023/11/21 04:55:52;;;;;;;;;;;;;;;6.67;100.00;100939.81;6186472;23;19924;-80
2023/11/21 04:58:19;;;;;;;;;;;;;;;6.71;100.00;100938.44;6189053;23;19958;-82
2023/11/21 05:00:44;;;;;;;;;;;;;;;6.72;100.00;100940.13;6193263;23;19920;-80
2023/11/21 05:03:18;;;;;;;;;;;;;;;6.69;100.00;100945.81;6192496;23;20162;-84
2023/11/21 05:05:44;;;;;;;;;;;;;;;6.73;100.00;100944.47;6187226;23;19983;-81
2023/11/21 05:08:29;;;;;;;;;;;;;;;6.75;100.00;100955.84;6185604;23;20278;-80
2023/11/21 05:10:54;;;;;;;;;;;;;;;6.73;100.00;100954.34;6185016;23;19939;-83
2023/11/21 05:13:20;;;;;;;;;;;;;;;6.66;100.00;100964.88;6184582;23;19916;-84
2023/11/21 05:15:45;;;;;;;;;;;;;;;6.67;100.00;100961.22;6184201;23;19987;-84
2023/11/21 05:18:11;;;;;;;;;;;;;;;6.74;100.00;100956.84;6184773;23;20002;-83
2023/11/21 05:20:39;;;;;;;;;;;;;;;6.70;100.00;100968.91;6175776;23;19920;-83
2023/11/21 05:23:16;;;;;;;;;;;;;;;6.75;100.00;100979.09;6184610;23;19912;-84
2023/11/21 05:25:42;;;;;;;;;;;;;;;6.61;100.00;100978.78;6185944;23;19912;-84
2023/11/21 05:28:07;;;;;;;;;;;;;;;6.75;100.00;100979.09;6189715;23;19987;-83
2023/11/21 05:30:51;;;;;;;;;;;;;;;6.75;100.00;100987.94;6188467;23;19918;-84
2023/11/21 05:33:19;;;;;;;;;;;;;;;6.76;100.00;100989.63;6184449;23;20291;-83
2023/11/21 05:36:00;;;;;;;;;;;;;;;6.53;100.00;100997.47;6184974;23;19932;-83
2023/11/21 05:38:35;;;;;;;;;;;;;;;6.55;100.00;100997.31;6184323;23;20377;-83
2023/11/21 05:41:13;;;;;;;;;;;;;;;6.67;100.00;100996.00;6183656;23;19991;-84
2023/11/21 05:43:38;;;;;;;;;;;;;;;6.62;100.00;100990.28;6185438;23;19916;-84
2023/11/21 05:46:03;;;;;;;;;;;;;;;6.65;100.00;101000.66;6183743;23;19958;-83
2023/11/21 05:48:29;;;;;;;;;;;;;;;6.67;100.00;101004.00;6184425;23;19927;-84
2023/11/21 05:50:56;;;;;;;;;;;;;;;6.68;100.00;100998.47;6185644;23;19916;-83
2023/11/21 05:53:24;;;;;;;;;;;;;;;6.71;100.00;101001.81;6186210;23;19916;-82
2023/11/21 05:55:56;;;;;;;;;;;;;;;6.65;100.00;101009.50;6192411;23;19920;-82
2023/11/21 05:58:43;;;;;;;;;;;;;;;6.54;100.00;101020.56;6203722;23;19917;-82
2023/11/21 06:04:24;;;;;;;;;;;;;;;6.54;100.00;101025.91;6187156;23;20007;-82
2023/11/21 06:06:50;;;;;;;;;;;;;;;6.41;100.00;101042.44;6186567;23;20022;-82
2023/11/21 06:09:30;;;;;;;;;;;;;;;6.40;100.00;101037.25;6185120;23;19912;-82
2023/11/21 06:11:55;;;;;;;;;;;;;;;6.61;100.00;101036.78;6187460;23;19989;-82
2023/11/21 06:14:29;;;;;;;;;;;;;;;6.63;100.00;101045.47;6187359;23;20337;-82
2023/11/21 06:16:56;;;;;;;;;;;;;;;6.50;100.00;101043.28;6184482;23;19920;-82
2023/11/21 06:19:30;;;;;;;;;;;;;;;6.55;100.00;101048.13;6185836;23;19999;-82
2023/11/21 06:21:55;;;;;;;;;;;;;;;6.62;100.00;101059.84;6185856;23;19949;-81
2023/11/21 06:24:24;;;;;;;;;;;;;;;6.70;100.00;101056.34;6185741;23;20451;-82
2023/11/21 06:26:49;;;;;;;;;;;;;;;6.68;100.00;101065.38;6188785;23;19956;-82
2023/11/21 06:29:36;;;;;;;;;;;;;;;6.69;100.00;101071.56;6188731;23;20269;-82
2023/11/21 06:32:05;;;;;;;;;;;;;;;6.60;100.00;101070.72;6193437;23;19946;-82
2023/11/21 06:34:36;;;;;;;;;;;;;;;6.63;100.00;101072.22;6186158;23;19917;-82
2023/11/21 06:37:01;;;;;;;;;;;;;;;6.68;100.00;101075.25;6185431;23;19931;-82
2023/11/21 06:39:27;;;;;;;;;;;;;;;6.67;100.00;101081.59;6184329;23;20280;-82
2023/11/21 06:41:52;;;;;;;;;;;;;;;6.74;100.00;101079.91;6185125;23;19919;-82
2023/11/21 06:44:19;;;;;;;;;;;;;;;6.76;100.00;101077.09;6185383;23;19913;-82
2023/11/21 06:46:44;;;;;;;;;;;;;;;6.77;100.00;101079.59;6174300;23;20318;-82
2023/11/21 06:49:16;;;;;;;;;;;;;;;6.76;100.00;101093.13;6184193;23;19944;-82
2023/11/21 06:51:42;;;;;;;;;;;;;;;6.67;100.00;101094.97;6186252;23;19931;-82
2023/11/21 06:54:10;;;;;;;;;;;;;;;6.75;100.00;101091.47;6183110;23;19915;-81
2023/11/21 06:56:35;;;;;;;;;;;;;;;6.78;100.00;101097.31;6184608;23;19913;-84
2023/11/21 06:59:13;;;;;;;;;;;;;;;6.79;100.00;101092.81;6183067;23;19916;-83
2023/11/21 07:05:10;;;;;;;;;;;;;;;6.77;100.00;101098.31;6176362;23;20007;-83
2023/11/21 07:07:45;;;;;;;;;;;;;;;6.78;100.00;101097.31;6181551;23;19924;-83
2023/11/21 07:10:10;;;;;;;;;;;;;;;6.78;100.00;101100.00;6182473;23;19913;-83
2023/11/21 07:12:35;;;;;;;;;;;;;;;6.65;100.00;101102.31;6184611;23;19987;-83
2023/11/21 07:15:00;;;;;;;;;;;;;;;6.73;100.00;101105.00;6183246;23;19924;-83
2023/11/21 07:17:32;;;;;;;;;;;;;;;6.75;100.00;101104.84;6182690;23;20344;-82
2023/11/21 07:19:58;;;;;;;;;;;;;;;6.76;100.00;101106.53;6182517;23;19979;-83
2023/11/21 07:22:32;;;;;;;;;;;;;;;6.77;100.00;101121.56;6184793;23;20362;-80
2023/11/21 07:24:58;;;;;;;;;;;;;;;6.73;100.00;101120.22;6185199;23;19909;-79
2023/11/21 07:27:35;;;;;;;;;;;;;;;6.79;100.00;101128.41;6184878;23;20329;-79
2023/11/21 07:30:04;;;;;;;;;;;;;;;6.80;100.00;101135.44;6183903;23;19999;-85
2023/11/21 07:32:51;;;;;;;;;;;;;;;6.86;100.00;101143.81;6177137;23;19912;-85
2023/11/21 07:35:31;;;;;;;;;;;;;;;6.89;100.00;101152.34;6186471;23;19978;-84
2023/11/21 07:37:57;;;;;;;;;;;;;;;6.91;100.00;101155.72;6185148;23;19916;-84
2023/11/21 07:40:31;;;;;;;;;;;;;;;6.93;100.00;101163.56;6185382;23;19912;-85
2023/11/21 07:42:57;;;;;;;;;;;;;;;6.86;100.00;101165.25;6185780;23;19947;-85
2023/11/21 07:45:22;;;;;;;;;;;;;;;6.79;100.00;101160.53;6184899;23;19912;-84
2023/11/21 07:47:47;;;;;;;;;;;;;;;6.75;100.00;101167.22;6184990;23;19931;-84
2023/11/21 07:50:13;;;;;;;;;;;;;;;6.76;100.00;101168.88;6185726;23;20233;-82
2023/11/21 07:52:39;;;;;;;;;;;;;;;6.71;100.00;101176.56;6184554;23;20229;-85
2023/11/21 07:55:05;;;;;;;;;;;;;;;6.68;100.00;101179.59;6185120;23;19912;-85
2023/11/21 07:57:30;;;;;;;;;;;;;;;6.70;100.00;101182.94;6160142;23;19916;-85
2023/11/21 07:59:56;;;;;;;;;;;;;;;6.97;100.00;101183.66;6185558;23;19990;-85
2023/11/21 08:02:34;;;;;;;;;;;;;;;7.04;100.00;101186.50;6183469;23;20050;-85
2023/11/21 08:05:00;;;;;;;;;;;;;;;7.11;100.00;101193.69;6182630;23;19962;-82
2023/11/21 08:07:25;;;;;;;;;;;;;;;7.14;100.00;101197.91;6185201;23;19924;-82
2023/11/21 08:09:51;;;;;;;;;;;;;;;7.04;100.00;101202.56;6158094;23;19912;-82
2023/11/21 08:12:17;;;;;;;;;;;;;;;7.20;100.00;101209.78;6186469;23;20211;-83
2023/11/21 08:14:43;;;;;;;;;;;;;;;7.30;100.00;101213.13;6185860;23;19966;-83
2023/11/21 08:17:10;;;;;;;;;;;;;;;7.42;100.00;101217.16;6184416;23;19952;-84
2023/11/21 08:19:36;;;;;;;;;;;;;;;7.50;100.00;101220.84;6186279;23;20384;-83
2023/11/21 08:22:01;;;;;;;;;;;;;;;7.46;100.00;101222.16;6185922;23;19916;-83
2023/11/21 08:24:27;;;;;;;;;;;;;;;7.26;100.00;101227.84;6184360;23;19916;-83
2023/11/21 08:26:54;;;;;;;;;;;;;;;7.36;100.00;101228.53;6184971;23;20002;-83
2023/11/21 08:29:19;;;;;;;;;;;;;;;7.37;100.00;101227.53;6185940;23;19913;-83
2023/11/21 08:31:46;;;;;;;;;;;;;;;7.41;100.00;101241.44;6183820;23;19986;-84
2023/11/21 08:34:12;;;;;;;;;;;;;;;7.71;100.00;101247.13;6187005;23;19924;-83
2023/11/21 08:36:41;;;;;;;;;;;;;;;7.62;100.00;101248.97;6184383;23;19976;-83
2023/11/21 08:39:06;;;;;;;;;;;;;;;7.67;100.00;101254.66;6184961;23;19944;-83
2023/11/21 08:41:31;;;;;;;;;;;;;;;7.74;100.00;101249.47;6186810;23;19923;-83
2023/11/21 08:43:58;;;;;;;;;;;;;;;7.84;100.00;101242.09;6185375;23;19912;-84
2023/11/21 08:46:25;;;;;;;;;;;;;;;7.68;100.00;101248.31;6186617;23;19922;-84
2023/11/21 08:48:52;;;;;;;;;;;;;;;7.70;100.00;101250.78;6188091;23;19918;-84
2023/11/21 08:51:17;;;;;;;;;;;;;;;7.67;100.00;101256.53;6187332;23;19916;-83
2023/11/21 08:53:42;;;;;;;;;;;;;;;7.66;100.00;101263.69;6187598;23;19913;-83
2023/11/21 08:56:09;;;;;;;;;;;;;;;7.70;100.00;101273.09;6161835;23;20366;-83
2023/11/21 08:58:36;;;;;;;;;;;;;;;7.68;100.00;101269.75;6188223;23;19916;-82
2023/11/21 09:01:01;;;;;;;;;;;;;;;7.64;100.00;101272.94;6190095;23;19916;-83
2023/11/21 09:03:28;;;;;;;;;;;;;;;7.69;100.00;101275.91;6194310;23;19947;-84
2023/11/21 09:05:53;;;;;;;;;;;;;;;7.72;100.00;101278.28;6195117;23;19912;-83
2023/11/21 09:08:22;;;;;;;;;;;;;;;7.72;100.00;101284.47;6187577;23;19920;-83
2023/11/21 09:10:47;;;;;;;;;;;;;;;7.86;100.00;101287.50;6185892;23;19987;-83
2023/11/21 09:13:16;;;;;;;;;;;;;;;7.89;100.00;101284.47;6186147;23;20293;-83
2023/11/21 09:15:41;;;;;;;;;;;;;;;7.92;100.00;101289.50;6185876;23;19920;-83
2023/11/21 09:18:07;;;;;;;;;;;;;;;8.08;100.00;101290.50;6187237;23;19915;-83
2023/11/21 09:20:32;;;;;;;;;;;;;;;8.13;100.00;101293.47;6186244;23;19938;-83
2023/11/21 09:22:58;;;;;;;;;;;;;;;7.96;100.00;101301.53;6185876;23;20245;-84
2023/11/21 09:25:23;;;;;;;;;;;;;;;7.93;100.00;101295.69;6189097;23;19975;-83
2023/11/21 09:27:48;;;;;;;;;;;;;;;7.99;100.00;101298.53;6192418;23;20241;-83
2023/11/21 09:30:16;;;;;;;;;;;;;;;8.00;100.00;101305.56;6200294;23;19916;-83
2023/11/21 09:35:10;;;;;;;;;;;;;;;8.16;100.00;101319.97;6159184;23;20341;-83
2023/11/21 09:37:45;;;;;;;;;;;;;;;8.16;100.00;101319.97;6156573;23;19956;-82
2023/11/21 09:40:34;;;;;;;;;;;;;;;8.13;100.00;101320.31;6154961;23;19979;-82
2023/11/21 09:42:59;;;;;;;;;;;;;;;8.08;100.00;101322.66;6143854;23;20348;-82
2023/11/21 09:45:37;;;;;;;;;;;;;;;8.16;100.00;101328.88;6156102;23;19921;-82
2023/11/21 09:48:02;;;;;;;;;;;;;;;8.17;100.00;101333.22;6155367;23;19913;-82
2023/11/21 09:50:33;;;;;;;;;;;;;;;8.20;100.00;101337.41;6157532;23;20341;-82
2023/11/21 09:53:11;;;;;;;;;;;;;;;8.15;100.00;101331.69;6129906;23;19976;-83
2023/11/21 09:55:36;;;;;;;;;;;;;;;8.21;100.00;101349.81;6154910;23;20441;-83
2023/11/21 09:58:02;;;;;;;;;;;;;;;8.27;100.00;101348.28;6130575;23;19952;-82
2023/11/21 10:00:28;;;;;;;;;;;;;;;8.27;100.00;101349.16;6195453;23;19955;-82
2023/11/21 10:02:59;;;;;;;;;;;;;;;8.28;100.00;101347.28;6190355;23;19923;-82
2023/11/21 10:05:34;;;;;;;;;;;;;;;8.32;100.00;101356.69;6226131;23;20336;-83
2023/11/21 10:07:59;;;;;;;;;;;;;;;8.33;100.00;101356.50;6218119;23;19916;-82
2023/11/21 10:13:31;;;;;;;;;;;;;;;8.41;100.00;101365.53;6215147;23;19958;-83
2023/11/21 10:15:59;;;;;;;;;;;;;;;8.44;100.00;101373.25;6187714;23;19938;-82
2023/11/21 10:18:34;;;;;;;;;;;;;;;8.51;100.00;101371.59;6215256;23;19918;-83
2023/11/21 10:20:59;;;;;;;;;;;;;;;8.58;100.00;101377.97;6213737;23;19915;-83
2023/11/21 10:23:30;;;;;;;;;;;;;;;8.68;100.00;101371.56;6213479;23;19912;-83
2023/11/21 10:25:56;;;;;;;;;;;;;;;8.66;100.00;101374.41;6214196;23;19912;-83
2023/11/21 10:28:30;;;;;;;;;;;;;;;8.71;100.00;101377.44;6187733;23;19916;-82
2023/11/21 10:30:55;;;;;;;;;;;;;;;8.73;100.00;101377.25;6187918;23;19915;-81
2023/11/21 10:33:26;;;;;;;;;;;;;;;8.76;100.00;101384.97;6216509;23;19999;-82
2023/11/21 10:35:54;;;;;;;;;;;;;;;8.88;100.00;101393.50;6217940;23;19943;-83
2023/11/21 10:38:50;;;;;;;;;;;;;;;8.93;100.00;101394.66;6226992;23;20224;-82
2023/11/21 10:41:16;;;;;;;;;;;;;;;8.91;100.00;101390.47;6220178;23;19912;-83
2023/11/21 10:43:41;;;;;;;;;;;;;;;8.84;100.00;101395.66;6187900;23;19916;-84
2023/11/21 10:46:06;;;;;;;;;;;;;;;8.79;100.00;101400.75;6184372;23;20460;-82
2023/11/21 10:48:33;;;;;;;;;;;;;;;8.73;100.00;101402.25;6215464;23;20878;-82
2023/11/21 10:50:58;;;;;;;;;;;;;;;8.67;100.00;101400.25;6213390;23;19916;-82
2023/11/21 10:53:28;;;;;;;;;;;;;;;8.58;100.00;101409.31;6213903;23;20224;-82
2023/11/21 10:56:00;;;;;;;;;;;;;;;8.59;100.00;101411.84;6188759;23;19916;-81
2023/11/21 10:58:26;;;;;;;;;;;;;;;8.43;100.00;101403.78;6216252;23;20225;-82
2023/11/21 11:00:52;;;;;;;;;;;;;;;8.42;100.00;101399.41;6187625;23;19969;-82
2023/11/21 11:03:17;;;;;;;;;;;;;;;8.42;100.00;101399.41;6214139;23;19936;-82
2023/11/21 11:05:49;;;;;;;;;;;;;;;8.40;100.00;101402.25;6213401;23;20215;-82
2023/11/21 11:08:18;;;;;;;;;;;;;;;8.40;100.00;101407.63;6213230;23;19912;-82
2023/11/21 11:10:46;;;;;;;;;;;;;;;8.47;100.00;101414.00;6214303;23;19911;-82
2023/11/21 11:13:14;;;;;;;;;;;;;;;8.54;100.00;101406.13;6185808;23;19916;-83
2023/11/21 11:15:39;;;;;;;;;;;;;;;8.58;100.00;101410.16;6214371;23;20287;-83
2023/11/21 11:18:06;;;;;;;;;;;;;;;8.74;100.00;101417.34;6214379;23;19971;-83
2023/11/21 11:20:37;;;;;;;;;;;;;;;8.84;100.00;101419.84;6188191;23;19912;-83
2023/11/21 11:23:22;;;;;;;;;;;;;;;8.97;100.00;101413.09;6186585;23;19916;-81
2023/11/21 11:25:59;;;;;;;;;;;;;;;8.97;100.00;101419.31;6214804;23;20337;-83
2023/11/21 11:28:29;;;;;;;;;;;;;;;8.95;100.00;101421.31;6187194;23;19997;-84
2023/11/21 11:30:55;;;;;;;;;;;;;;;9.00;100.00;101418.97;6213208;23;19919;-84
2023/11/21 11:33:26;;;;;;;;;;;;;;;9.04;100.00;101414.94;6213860;23;19916;-82
2023/11/21 11:36:00;;;;;;;;;;;;;;;9.03;100.00;101412.41;6187155;23;19916;-82
2023/11/21 11:38:31;;;;;;;;;;;;;;;9.02;100.00;101419.63;6214161;23;19916;-82
2023/11/21 11:40:56;;;;;;;;;;;;;;;9.02;100.00;101424.16;6214046;23;20258;-83
2023/11/21 11:43:25;;;;;;;;;;;;;;;9.11;100.00;101436.56;6213182;23;20344;-83
2023/11/21 11:45:52;;;;;;;;;;;;;;;9.08;100.00;101447.63;6213323;23;19912;-82
2023/11/21 11:48:18;;;;;;;;;;;;;;;9.08;100.00;101450.31;6213682;23;20236;-82
2023/11/21 11:51:05;;;;;;;;;;;;;;;9.01;100.00;101454.69;6214062;23;20309;-81
2023/11/21 11:53:35;;;;;;;;;;;;;;;8.95;100.00;101458.91;6213742;23;19920;-83
2023/11/21 11:56:19;;;;;;;;;;;;;;;8.88;100.00;101456.06;6213919;23;19912;-83
2023/11/21 11:58:46;;;;;;;;;;;;;;;8.81;100.00;101471.22;6213545;23;19916;-82
2023/11/21 12:01:16;;;;;;;;;;;;;;;8.73;100.00;101465.84;6137982;23;1769055;-84
2023/11/21 12:03:41;;;;;;;;;;;;;;;8.65;100.00;101472.88;6217547;23;19923;-83
2023/11/21 12:06:07;;;;;;;;;;;;;;;8.61;100.00;101484.13;6215467;23;19912;-81
2023/11/21 12:08:32;;;;;;;;;;;;;;;8.54;100.00;101483.97;6215174;23;19916;-82
2023/11/21 12:10:58;;;;;;;;;;;;;;;8.49;100.00;101486.31;6217604;23;20328;-81
2023/11/21 12:13:23;;;;;;;;;;;;;;;8.54;100.00;101486.66;6189499;23;19999;-82
2023/11/21 12:15:48;;;;;;;;;;;;;;;8.55;100.00;101490.19;6215817;23;20331;-81
2023/11/21 12:18:14;;;;;;;;;;;;;;;8.56;100.00;101486.50;6216809;23;19979;-82
2023/11/21 12:20:40;;;;;;;;;;;;;;;8.58;100.00;101488.00;6216472;23;20010;-81
2023/11/21 12:23:06;;;;;;;;;;;;;;;8.59;100.00;101495.03;6215334;23;19908;-82
2023/11/21 12:25:35;;;;;;;;;;;;;;;8.56;100.00;101498.06;6216909;23;20339;-82
2023/11/21 12:28:02;;;;;;;;;;;;;;;8.62;100.00;101502.75;6215755;23;19912;-82
2023/11/21 12:30:31;;;;;;;;;;;;;;;8.59;100.00;101500.41;6214834;23;19915;-82
2023/11/21 12:32:57;;;;;;;;;;;;;;;8.63;100.00;101499.06;6216760;23;19919;-81
2023/11/21 12:35:24;;;;;;;;;;;;;;;8.56;100.00;101498.06;6216025;23;19912;-82
2023/11/21 12:37:50;;;;;;;;;;;;;;;8.54;100.00;101500.06;6215177;23;19916;-82
2023/11/21 12:40:15;;;;;;;;;;;;;;;8.53;100.00;101503.75;6190334;23;20006;-82
2023/11/21 12:42:41;;;;;;;;;;;;;;;8.56;100.00;101508.78;6215928;23;19983;-81
2023/11/21 12:45:15;;;;;;;;;;;;;;;8.56;100.00;101514.16;6215022;23;20241;-82
2023/11/21 12:47:43;;;;;;;;;;;;;;;8.56;100.00;101514.16;6217138;23;19987;-81
2023/11/21 12:50:14;;;;;;;;;;;;;;;8.54;100.00;101518.84;6217096;23;19912;-82
2023/11/21 12:52:40;;;;;;;;;;;;;;;8.58;100.00;101530.94;6215035;23;19942;-81
2023/11/21 12:55:07;;;;;;;;;;;;;;;8.55;100.00;101531.25;6218780;23;19958;-81
2023/11/21 12:57:33;;;;;;;;;;;;;;;8.54;100.00;101531.44;6217535;23;19916;-81
2023/11/21 13:00:00;;;;;;;;;;;;;;;8.46;100.00;101535.75;6219688;23;19946;-82
2023/11/21 13:02:29;;;;;;;;;;;;;;;8.52;100.00;101536.97;6220566;23;19956;-81
2023/11/21 13:04:57;;;;;;;;;;;;;;;8.55;100.00;101533.13;6220234;23;20365;-82
2023/11/21 13:07:23;;;;;;;;;;;;;;;8.51;100.00;101532.59;6197283;23;19918;-81
2023/11/21 13:09:51;;;;;;;;;;;;;;;8.56;100.00;101545.53;6234907;23;19908;-82
2023/11/21 13:12:18;;;;;;;;;;;;;;;8.58;100.00;101544.34;6195613;23;19955;-82
2023/11/21 13:14:43;;;;;;;;;;;;;;;8.59;100.00;101537.13;6216251;23;19916;-82
2023/11/21 13:17:10;;;;;;;;;;;;;;;8.63;100.00;101552.75;6189292;23;19916;-81
2023/11/21 13:19:36;;;;;;;;;;;;;;;8.61;100.00;101545.84;6215248;23;19920;-81
2023/11/21 13:22:04;;;;;;;;;;;;;;;8.56;100.00;101553.59;6215266;23;19912;-81
2023/11/21 13:24:29;;;;;;;;;;;;;;;8.49;100.00;101556.06;6216319;23;19943;-82
2023/11/21 13:26:54;;;;;;;;;;;;;;;8.45;100.00;101546.66;6214362;23;19916;-81
2023/11/21 13:29:20;;;;;;;;;;;;;;;8.29;100.00;101551.00;6214697;23;19912;-81
2023/11/21 13:31:46;;;;;;;;;;;;;;;8.20;100.00;101560.00;6215694;23;19966;-81